Winnemucca, NV

8:30 PM PST on February 12, 2016 (GMT -0800)
Winnemucca Municipal | | Change Station
CLOSE
Current Station
Airport
Location: Winnemucca,
Elevation: 4311 ft
Nearby Weather Stations

Elev 4311 ft 40.90 °N, 117.81 °W | Updated 34 minutes ago

Partly Cloudy
Partly Cloudy
41 °F
Feels Like 38 °F
N
5
Wind Variable Wind from ENE

Today
High -- | Low -- °F
--% Chance of Precip.
Yesterday
High -- | Low -- °F
Precip. -- in
Pressure 30.24 in
Visibility 10.0 miles
Clouds Clear
Windchill 38 °F
Dew Point 36 °F
Humidity 82%
Rainfall 0.00 in
Snow Depth Not available.
6:50 AM 5:21 PM
Waxing Crescent, 26% visible
METAR KWMC 130356Z AUTO 07004KT 10SM CLR 05/02 A3022 RMK AO2 SLP240 T00500022
Pressure 30.24 in
Visibility 10.0 miles
Clouds Clear
Windchill 38 °F
Dew Point 36 °F
Humidity 82%
Rainfall 0.00 in
Snow Depth Not available.
6:50 AM 5:21 PM
Waxing Crescent, 26% visible
METAR KWMC 130356Z AUTO 07004KT 10SM CLR 05/02 A3022 RMK AO2 SLP240 T00500022

10-Day Weather Forecast

Almanac

Astronomy

Feb. 12, 2016 Rise Set
Actual Time
Civil Twilight
Nautical Twilight
Astronomical Twilight
Moon
Length of Visible Light
Length of Day
Tomorrow will be .
, % of the Moon is Illuminated

Today's Extremes

State Highs State Lows

Community

WunderPhotos

Upload Photos

1,892,499 photos uploaded!

WunderBlog® & News

Nearby

Air Quality

  Air Quality AQ Index Pollutant
Not available.

Snow Depth

Station Depth Elevation

Earthquake Activity

City Distance Mag. Time & Date
Minimum magnitude displayed is 2.5.

Coastal Water Temperatures

Place Temperature

Stations

Nearby Weather Stations

Station Location Temp. Windchill Dew Point Humidity Wind Precip. Elev Updated Type
                   

Watches & Warnings

There are currently no watches in effect.